createdAt,value
2018-04-30T00:01:10.523Z,12.88
2018-04-30T00:03:36.940Z,13.62
2018-04-30T00:06:03.436Z,14.85
2018-04-30T00:08:29.899Z,12.93
2018-04-30T00:11:09.872Z,13.85
2018-04-30T00:13:37.035Z,13.32
2018-04-30T00:16:04.342Z,18.12
2018-04-30T00:21:32.236Z,16.00
2018-04-30T00:23:58.682Z,14.13
2018-04-30T00:26:25.842Z,13.60
2018-04-30T00:28:53.010Z,15.57
2018-04-30T00:31:21.251Z,13.50
2018-04-30T00:33:47.640Z,15.20
2018-04-30T00:36:15.562Z,14.52
2018-04-30T00:38:42.727Z,13.40
2018-04-30T00:41:34.974Z,18.63
2018-04-30T00:44:01.417Z,17.65
2018-04-30T00:46:28.559Z,14.38
2018-04-30T00:48:55.006Z,14.33
2018-04-30T00:51:21.513Z,14.45
2018-04-30T00:53:47.974Z,15.13
2018-04-30T00:56:14.393Z,15.00
2018-04-30T00:58:51.208Z,14.50
2018-04-30T01:01:18.381Z,12.20
2018-04-30T01:03:45.547Z,12.93
2018-04-30T01:06:19.989Z,14.82
2018-04-30T01:08:46.440Z,14.38
2018-04-30T01:11:13.002Z,13.10
2018-04-30T01:13:39.423Z,12.10
2018-04-30T01:16:07.916Z,15.33
2018-04-30T01:18:34.416Z,12.35
2018-04-30T01:21:01.594Z,12.05
2018-04-30T01:23:28.043Z,14.48
2018-04-30T01:25:56.248Z,14.13
2018-04-30T01:28:23.174Z,15.30
2018-04-30T01:30:49.618Z,13.80
2018-04-30T01:33:16.097Z,12.27
2018-04-30T01:35:42.518Z,12.25
2018-04-30T01:38:08.984Z,14.50
2018-04-30T01:40:35.424Z,14.02
2018-04-30T01:43:05.797Z,15.15
2018-04-30T01:45:32.236Z,14.47
2018-04-30T01:47:58.679Z,14.93
2018-04-30T01:50:25.121Z,12.90
2018-04-30T01:52:51.525Z,13.73
2018-04-30T01:55:18.011Z,12.55
2018-04-30T01:57:45.191Z,16.17
2018-04-30T02:00:11.893Z,14.35
2018-04-30T02:02:38.355Z,13.93
2018-04-30T02:05:04.812Z,15.82
2018-04-30T02:07:31.223Z,19.17
2018-04-30T02:09:57.644Z,14.87
2018-04-30T02:12:24.819Z,15.45
2018-04-30T02:14:51.400Z,16.30
2018-04-30T02:17:18.572Z,15.38
2018-04-30T02:19:45.847Z,16.00
2018-04-30T02:22:13.121Z,15.68
2018-04-30T02:24:40.281Z,14.65
2018-04-30T02:27:07.571Z,12.70
2018-04-30T02:29:34.747Z,13.20
2018-04-30T02:32:01.298Z,13.23
2018-04-30T02:34:28.485Z,13.38
2018-04-30T02:36:54.964Z,13.85
2018-04-30T02:39:21.385Z,12.95
2018-04-30T02:41:47.837Z,14.13
2018-04-30T02:44:14.992Z,16.73
2018-04-30T02:46:42.171Z,13.02
2018-04-30T02:49:09.349Z,13.13
2018-04-30T02:51:35.795Z,13.43
2018-04-30T02:54:03.056Z,17.58
2018-04-30T02:56:29.532Z,15.35
2018-04-30T02:58:56.713Z,13.13
2018-04-30T03:01:23.851Z,15.53
2018-04-30T03:03:51.035Z,15.23
2018-04-30T03:06:17.478Z,16.60
2018-04-30T03:08:43.910Z,13.73
2018-04-30T03:11:10.368Z,13.32
2018-04-30T03:13:37.807Z,14.95
2018-04-30T03:16:25.365Z,16.23
2018-04-30T03:18:51.864Z,14.18
2018-04-30T03:21:19.791Z,15.18
2018-04-30T03:23:46.274Z,15.98
2018-04-30T03:26:12.793Z,17.23
2018-04-30T03:28:39.270Z,13.00
2018-04-30T03:31:05.767Z,15.83
2018-04-30T03:33:32.223Z,14.70
2018-04-30T03:35:58.642Z,13.25
2018-04-30T03:38:25.095Z,15.57
2018-04-30T03:40:51.509Z,15.38
2018-04-30T03:43:17.979Z,16.50
2018-04-30T03:45:45.261Z,16.08
2018-04-30T03:48:12.439Z,14.40
2018-04-30T03:50:38.868Z,16.52
2018-04-30T03:53:05.254Z,14.07
2018-04-30T03:55:31.904Z,17.33
2018-04-30T03:57:59.179Z,14.63
2018-04-30T04:00:37.682Z,15.63
2018-04-30T04:03:17.256Z,16.52
2018-04-30T04:05:55.984Z,16.92
2018-04-30T04:08:23.126Z,14.98
2018-04-30T04:10:49.544Z,18.98
2018-04-30T04:13:16.064Z,15.00
2018-04-30T04:15:43.234Z,14.40
2018-04-30T04:18:10.387Z,16.02
2018-04-30T04:20:36.774Z,16.62
2018-04-30T04:23:03.266Z,14.50
2018-04-30T04:25:29.675Z,15.80
2018-04-30T04:27:56.118Z,14.95
2018-04-30T04:30:24.350Z,15.45
2018-04-30T04:32:50.781Z,13.80
2018-04-30T04:35:17.953Z,13.55
2018-04-30T04:37:45.230Z,20.40
2018-04-30T04:40:11.753Z,12.20
2018-04-30T04:42:38.146Z,14.77
2018-04-30T04:45:04.576Z,16.52
2018-04-30T04:47:31.213Z,13.85
2018-04-30T04:49:59.703Z,13.50
2018-04-30T04:52:26.227Z,15.07
2018-04-30T04:54:52.672Z,20.40
2018-04-30T04:57:31.386Z,15.27
2018-04-30T04:59:57.774Z,13.93
2018-04-30T05:02:24.189Z,15.65
2018-04-30T05:07:48.366Z,14.20
2018-04-30T05:10:14.813Z,16.33
2018-04-30T05:12:41.219Z,16.45
2018-04-30T05:15:08.506Z,12.65
2018-04-30T05:18:01.626Z,16.25
2018-04-30T05:20:28.062Z,14.40
2018-04-30T05:22:55.987Z,16.58
2018-04-30T05:25:22.427Z,13.15
2018-04-30T05:28:07.819Z,14.93
2018-04-30T05:30:35.000Z,12.87
2018-04-30T05:33:01.431Z,16.95
2018-04-30T05:35:27.859Z,13.48
2018-04-30T05:38:11.840Z,16.85
2018-04-30T05:40:38.332Z,14.27
2018-04-30T05:43:04.878Z,16.30
2018-04-30T05:45:32.153Z,11.82
2018-04-30T05:51:07.230Z,10.10
2018-04-30T05:53:33.678Z,12.05
2018-04-30T05:56:00.127Z,9.00
2018-04-30T05:58:26.680Z,12.40
2018-04-30T06:00:58.042Z,10.93
2018-04-30T06:03:25.112Z,11.85
2018-04-30T06:05:53.100Z,12.15
2018-04-30T06:08:20.292Z,12.70
2018-04-30T06:10:51.359Z,11.25
2018-04-30T06:13:17.990Z,8.88
2018-04-30T06:15:45.268Z,10.00
2018-04-30T06:18:13.324Z,14.47
2018-04-30T06:20:39.756Z,10.27
2018-04-30T06:23:06.339Z,11.15
2018-04-30T06:25:33.539Z,11.10
2018-04-30T06:28:00.823Z,12.10
2018-04-30T06:30:27.255Z,12.65
2018-04-30T06:32:53.733Z,8.40
2018-04-30T06:35:21.081Z,8.25
2018-04-30T06:37:47.481Z,10.65
2018-04-30T06:40:13.979Z,12.23
2018-04-30T06:42:40.365Z,11.12
2018-04-30T06:45:07.678Z,10.50
2018-04-30T06:47:34.200Z,10.38
2018-04-30T06:50:00.784Z,8.40
2018-04-30T06:52:27.248Z,10.07
2018-04-30T06:54:53.692Z,10.80
2018-04-30T06:57:20.560Z,9.73
2018-04-30T06:59:48.295Z,7.75
2018-04-30T07:02:14.892Z,7.30
2018-04-30T07:04:41.374Z,9.88
2018-04-30T07:07:07.907Z,14.68
2018-04-30T07:09:34.382Z,14.48
2018-04-30T07:12:00.879Z,16.52
2018-04-30T07:14:27.791Z,14.15
2018-04-30T07:16:55.061Z,13.18
2018-04-30T07:19:22.216Z,9.45
2018-04-30T07:21:49.743Z,10.13
2018-04-30T07:24:19.735Z,9.53
2018-04-30T07:26:46.954Z,8.73
2018-04-30T07:29:13.436Z,8.30
2018-04-30T07:31:39.901Z,11.00
2018-04-30T07:34:08.845Z,11.55
2018-04-30T07:36:36.337Z,11.48
2018-04-30T07:39:03.143Z,6.10
2018-04-30T07:41:29.955Z,8.40
2018-04-30T07:44:00.887Z,13.43
2018-04-30T07:46:27.308Z,19.75
2018-04-30T07:48:53.759Z,8.30
2018-04-30T07:51:20.262Z,13.25
2018-04-30T07:53:46.738Z,10.30
2018-04-30T07:56:13.229Z,8.90
2018-04-30T07:58:39.750Z,7.87
2018-04-30T08:01:07.010Z,15.30
2018-04-30T08:03:34.301Z,8.02
2018-04-30T08:06:01.504Z,7.68
2018-04-30T08:08:28.749Z,14.48
2018-04-30T08:10:56.498Z,7.47
2018-04-30T08:13:22.951Z,18.30
2018-04-30T08:15:49.448Z,7.55
2018-04-30T08:18:16.108Z,8.10
2018-04-30T08:20:42.559Z,6.07
2018-04-30T08:23:09.114Z,12.10
2018-04-30T08:25:36.392Z,5.50
2018-04-30T08:28:02.817Z,7.57
2018-04-30T08:30:31.643Z,9.20
2018-04-30T08:32:58.937Z,6.43
2018-04-30T08:35:26.745Z,16.00
2018-04-30T08:37:53.283Z,5.18
2018-04-30T08:40:19.717Z,6.28
2018-04-30T08:42:46.610Z,7.57
2018-04-30T08:45:13.163Z,5.37
2018-04-30T08:47:40.432Z,5.37
2018-04-30T08:50:08.530Z,6.12
2018-04-30T08:52:36.011Z,5.50
2018-04-30T08:55:02.537Z,6.30
2018-04-30T08:57:30.044Z,3.30
2018-04-30T08:59:56.602Z,3.80
2018-04-30T09:02:24.436Z,10.23
2018-04-30T09:04:51.054Z,7.87
2018-04-30T09:07:17.576Z,5.35
2018-04-30T09:09:44.065Z,4.37
2018-04-30T09:12:11.342Z,5.05
2018-04-30T09:14:38.921Z,4.33
2018-04-30T09:17:06.452Z,9.07
2018-04-30T09:19:33.674Z,4.97
2018-04-30T09:22:01.973Z,4.97
2018-04-30T09:24:28.426Z,11.10
2018-04-30T09:26:55.601Z,4.97
2018-04-30T09:29:22.070Z,7.03
2018-04-30T09:31:48.562Z,5.28
2018-04-30T09:34:15.124Z,1.60
2018-04-30T09:36:42.361Z,4.07
2018-04-30T09:39:09.416Z,3.60
2018-04-30T09:41:36.282Z,3.22
2018-04-30T09:44:03.513Z,6.53
2018-04-30T09:46:30.127Z,6.17
2018-04-30T09:48:56.774Z,10.95
2018-04-30T09:51:23.225Z,2.90
2018-04-30T09:53:51.266Z,3.80
2018-04-30T09:56:17.746Z,6.00
2018-04-30T09:58:45.570Z,11.40
2018-04-30T10:01:12.054Z,2.92
2018-04-30T10:03:38.529Z,3.97
2018-04-30T10:06:05.002Z,3.70
2018-04-30T10:08:31.597Z,7.30
2018-04-30T10:10:58.362Z,0.98
2018-04-30T10:13:25.546Z,2.33
2018-04-30T10:15:52.094Z,3.15
2018-04-30T10:18:18.545Z,7.03
2018-04-30T10:20:45.745Z,2.97
2018-04-30T10:23:12.936Z,2.47
2018-04-30T10:25:39.343Z,4.93
2018-04-30T10:28:06.499Z,2.97
2018-04-30T10:30:33.079Z,1.70
2018-04-30T10:32:59.503Z,4.25
2018-04-30T10:35:26.048Z,2.75
2018-04-30T10:37:54.056Z,1.58
2018-04-30T10:40:20.410Z,3.45
2018-04-30T10:42:46.847Z,2.10
2018-04-30T10:45:13.258Z,3.12
2018-04-30T10:47:39.728Z,3.90
2018-04-30T10:50:06.238Z,1.58
2018-04-30T10:52:33.416Z,1.20
2018-04-30T10:54:59.994Z,2.28
2018-04-30T10:57:26.981Z,2.55
2018-04-30T10:59:53.485Z,21.00
2018-04-30T11:02:20.901Z,1.37
2018-04-30T11:04:47.455Z,1.20
2018-04-30T11:07:14.734Z,2.50
2018-04-30T11:09:42.210Z,2.60
2018-04-30T11:12:08.767Z,1.98
2018-04-30T11:14:36.343Z,2.00
2018-04-30T11:17:03.383Z,3.80
2018-04-30T11:19:29.979Z,3.00
2018-04-30T11:21:56.487Z,3.30
2018-04-30T11:24:23.299Z,2.95
2018-04-30T11:26:49.741Z,3.12
2018-04-30T11:29:16.951Z,1.20
2018-04-30T11:31:43.405Z,2.15
2018-04-30T11:34:09.878Z,3.87
2018-04-30T11:36:36.337Z,1.50
2018-04-30T11:39:03.571Z,2.22
2018-04-30T11:52:36.974Z,2.33
2018-04-30T11:55:03.453Z,1.70
2018-04-30T11:57:30.075Z,2.57
2018-04-30T11:59:56.542Z,6.50
2018-04-30T12:02:23.008Z,2.47
2018-04-30T12:04:49.546Z,1.60
2018-04-30T12:07:16.043Z,2.20
2018-04-30T12:09:42.596Z,1.27
2018-04-30T12:12:09.662Z,9.52
2018-04-30T12:14:36.118Z,3.10
2018-04-30T12:17:02.644Z,2.87
2018-04-30T12:19:29.306Z,4.80
2018-04-30T12:21:55.843Z,1.37
2018-04-30T12:24:22.526Z,1.90
2018-04-30T12:26:49.088Z,1.70
2018-04-30T12:29:15.573Z,3.33
2018-04-30T12:31:42.063Z,3.28
2018-04-30T12:34:08.657Z,9.10
2018-04-30T12:36:35.109Z,4.10
2018-04-30T12:39:01.599Z,8.43
2018-04-30T12:41:28.081Z,3.75
2018-04-30T12:43:55.291Z,2.55
2018-04-30T12:46:21.959Z,2.05
2018-04-30T12:48:49.239Z,2.62
2018-04-30T12:51:16.408Z,1.95
2018-04-30T12:53:43.171Z,7.18
2018-04-30T12:56:09.663Z,3.80
2018-04-30T12:58:36.078Z,1.50
2018-04-30T13:01:02.546Z,1.48
2018-04-30T13:03:29.000Z,1.45
2018-04-30T13:05:55.480Z,1.33
2018-04-30T13:08:21.931Z,2.90
2018-04-30T13:10:48.425Z,3.33
2018-04-30T13:13:14.924Z,4.70
2018-04-30T13:15:41.499Z,9.25
2018-04-30T13:18:07.962Z,3.00
2018-04-30T13:20:34.452Z,1.48
2018-04-30T13:23:00.927Z,2.80
2018-04-30T13:25:27.519Z,3.40
2018-04-30T13:27:54.018Z,5.62
2018-04-30T13:30:20.412Z,3.15
2018-04-30T13:32:47.610Z,2.00
2018-04-30T13:35:14.065Z,2.80
2018-04-30T13:50:11.709Z,4.28
2018-04-30T13:52:38.167Z,3.60
2018-04-30T13:55:05.531Z,1.20
2018-04-30T13:57:32.683Z,5.23
2018-04-30T13:59:59.126Z,3.67
2018-04-30T14:02:25.552Z,2.90
2018-04-30T14:04:51.990Z,3.70
2018-04-30T14:07:18.551Z,4.90
2018-04-30T14:09:44.953Z,4.25
2018-04-30T14:12:11.369Z,3.58
2018-04-30T14:14:37.796Z,2.10
2018-04-30T14:17:04.987Z,1.60
2018-04-30T14:19:31.410Z,5.32
2018-04-30T14:21:58.604Z,3.40
2018-04-30T14:24:25.883Z,2.50
2018-04-30T14:26:53.108Z,2.20
2018-04-30T14:29:19.617Z,6.07
2018-04-30T14:31:46.052Z,3.12
2018-04-30T14:34:12.551Z,2.20
2018-04-30T14:36:39.013Z,1.48
2018-04-30T14:39:05.491Z,2.20
2018-04-30T14:41:31.999Z,6.70
2018-04-30T14:43:58.470Z,3.70
2018-04-30T14:46:25.105Z,1.52
2018-04-30T14:48:52.324Z,7.40
2018-04-30T14:51:18.863Z,3.90
2018-04-30T14:53:45.307Z,2.15
2018-04-30T14:56:11.764Z,3.42
2018-04-30T14:58:39.136Z,2.00
2018-04-30T15:01:05.699Z,2.58
2018-04-30T15:03:32.168Z,2.65
2018-04-30T15:05:58.637Z,2.60
2018-04-30T15:08:25.890Z,1.23
2018-04-30T15:10:52.316Z,7.40
2018-04-30T15:13:18.974Z,3.62
2018-04-30T15:15:45.387Z,5.53
2018-04-30T15:18:11.854Z,3.40
2018-04-30T15:20:38.362Z,1.40
2018-04-30T15:23:05.600Z,3.08
2018-04-30T15:25:32.917Z,2.70
2018-04-30T15:28:00.202Z,5.37
2018-04-30T15:30:27.466Z,9.02
2018-04-30T15:32:54.653Z,3.85
2018-04-30T15:35:21.121Z,3.67
2018-04-30T15:37:47.595Z,2.45
2018-04-30T15:40:14.022Z,3.10
2018-04-30T15:42:40.563Z,12.35
2018-04-30T15:45:07.006Z,1.77
2018-04-30T15:47:33.481Z,2.60
2018-04-30T15:50:00.041Z,7.25
2018-04-30T15:52:28.605Z,3.83
2018-04-30T15:54:55.051Z,2.90
2018-04-30T15:57:21.558Z,5.70
2018-04-30T16:00:01.776Z,4.32
2018-04-30T16:02:28.228Z,6.90
2018-04-30T16:04:54.629Z,12.37
2018-04-30T16:07:22.006Z,14.25
2018-04-30T16:09:52.264Z,29.75
2018-04-30T16:12:18.700Z,26.73
2018-04-30T16:14:45.876Z,15.93
2018-04-30T16:17:13.026Z,22.42
2018-04-30T16:19:50.661Z,10.52
2018-04-30T16:22:17.156Z,11.20
2018-04-30T16:24:43.573Z,28.20
2018-04-30T16:27:09.991Z,32.97
2018-04-30T16:32:48.502Z,7.53
2018-04-30T16:35:15.457Z,10.07
2018-04-30T16:37:41.854Z,25.67
2018-04-30T16:40:09.247Z,11.57
2018-04-30T16:42:36.580Z,5.70
2018-04-30T16:45:04.491Z,7.07
2018-04-30T16:47:30.891Z,7.62
2018-04-30T16:49:57.305Z,9.90
2018-04-30T16:52:24.475Z,9.45
2018-04-30T16:54:50.891Z,11.23
2018-04-30T16:57:17.394Z,16.90
2018-04-30T16:59:44.647Z,10.93
2018-04-30T17:02:11.952Z,10.15
2018-04-30T17:04:39.145Z,16.48
2018-04-30T17:07:05.556Z,13.20
2018-04-30T17:09:32.856Z,9.40
2018-04-30T17:12:00.046Z,8.68
2018-04-30T17:14:26.589Z,12.32
2018-04-30T17:16:53.792Z,12.80
2018-04-30T17:19:20.198Z,11.10
2018-04-30T17:21:46.665Z,13.50
2018-04-30T17:24:13.833Z,13.15
2018-04-30T17:26:40.992Z,39.08
2018-04-30T17:29:07.442Z,23.20
2018-04-30T17:31:33.929Z,10.07
2018-04-30T17:34:01.093Z,13.45
2018-04-30T17:36:27.598Z,12.70
2018-04-30T17:38:54.021Z,28.98
2018-04-30T17:41:20.463Z,20.15
2018-04-30T17:43:47.029Z,24.95
2018-04-30T17:46:14.216Z,17.52
2018-04-30T17:48:40.644Z,19.35
2018-04-30T17:51:07.835Z,18.20
2018-04-30T17:53:34.386Z,18.23
2018-04-30T17:56:01.663Z,18.17
2018-04-30T17:58:28.852Z,22.27
2018-04-30T18:00:55.272Z,21.00
2018-04-30T18:03:21.711Z,20.48
2018-04-30T18:05:48.306Z,21.80
2018-04-30T18:08:15.470Z,33.95
2018-04-30T18:10:42.038Z,75.45
2018-04-30T18:13:10.272Z,67.32
2018-04-30T18:15:36.694Z,54.55
2018-04-30T18:18:03.163Z,96.37
2018-04-30T18:20:29.610Z,73.78
2018-04-30T18:22:56.058Z,52.33
2018-04-30T18:25:23.331Z,102.00
2018-04-30T18:27:50.505Z,71.05
2018-04-30T18:30:17.740Z,41.28
2018-04-30T18:32:44.777Z,44.28
2018-04-30T18:35:11.318Z,43.38
2018-04-30T18:37:37.862Z,26.98
2018-04-30T18:40:05.081Z,29.90
2018-04-30T18:42:32.177Z,26.07
2018-04-30T18:44:58.702Z,21.80
2018-04-30T18:47:25.161Z,24.40
2018-04-30T18:49:52.217Z,21.35
2018-04-30T18:52:18.669Z,14.40
2018-04-30T18:54:45.123Z,14.77
2018-04-30T18:57:11.564Z,13.95
2018-04-30T18:59:38.027Z,14.60
2018-04-30T19:02:05.192Z,16.30
2018-04-30T19:04:31.609Z,19.52
2018-04-30T19:06:58.764Z,51.28
2018-04-30T19:09:25.275Z,52.20
2018-04-30T19:11:51.834Z,43.65
2018-04-30T19:14:18.390Z,41.85
2018-04-30T19:16:44.830Z,33.53
2018-04-30T19:19:12.121Z,33.53
2018-04-30T19:21:39.290Z,34.38
2018-04-30T19:24:05.744Z,36.90
2018-04-30T19:26:32.248Z,38.55
2018-04-30T19:28:58.732Z,37.60
2018-04-30T19:31:25.184Z,36.47
2018-04-30T19:33:51.702Z,40.00
2018-04-30T19:36:18.205Z,48.90
2018-04-30T19:38:44.654Z,65.77
2018-04-30T19:41:11.160Z,83.87
2018-04-30T19:43:37.709Z,93.95
2018-04-30T19:46:04.275Z,91.18
2018-04-30T19:48:30.750Z,77.27
2018-04-30T19:50:57.208Z,74.25
2018-04-30T19:53:23.736Z,67.90
2018-04-30T19:55:51.013Z,78.87
2018-04-30T19:58:18.738Z,81.10
2018-04-30T20:00:45.240Z,77.70
2018-04-30T20:03:12.424Z,72.83
2018-04-30T20:05:39.669Z,70.75
2018-04-30T20:08:06.882Z,70.37
2018-04-30T20:10:33.431Z,65.45
2018-04-30T20:13:00.602Z,70.87
2018-04-30T20:15:27.883Z,84.00
2018-04-30T20:17:54.358Z,107.68
2018-04-30T20:20:20.845Z,131.95
2018-04-30T20:22:47.351Z,130.68
2018-04-30T20:25:13.820Z,96.25
2018-04-30T20:27:40.339Z,84.40
2018-04-30T20:30:06.796Z,72.50
2018-04-30T20:32:33.207Z,68.60
2018-04-30T20:34:59.649Z,68.40
2018-04-30T20:37:26.098Z,81.40
2018-04-30T20:39:52.575Z,86.03
2018-04-30T20:42:19.062Z,85.75
2018-04-30T20:44:45.560Z,88.82
2018-04-30T20:47:12.748Z,91.93
2018-04-30T20:49:39.205Z,85.33
2018-04-30T20:52:05.659Z,83.53
2018-04-30T20:54:32.105Z,78.93
2018-04-30T20:56:59.253Z,74.60
2018-04-30T20:59:25.683Z,72.45
2018-04-30T21:01:52.095Z,76.47
2018-04-30T21:04:18.579Z,84.97
2018-04-30T21:06:45.178Z,79.85
2018-04-30T21:09:12.885Z,78.28
2018-04-30T21:11:39.442Z,73.72
2018-04-30T21:14:06.658Z,71.93
2018-04-30T21:16:33.182Z,74.00
2018-04-30T21:18:59.617Z,72.62
2018-04-30T21:21:26.815Z,69.95
2018-04-30T21:23:53.269Z,68.90
2018-04-30T21:26:19.717Z,68.35
2018-04-30T21:28:46.147Z,69.93
2018-04-30T21:31:12.624Z,71.90
2018-04-30T21:33:39.044Z,73.55
2018-04-30T21:36:05.505Z,76.65
2018-04-30T21:38:32.099Z,76.50
2018-04-30T21:40:59.281Z,75.07
2018-04-30T21:43:25.706Z,75.78
2018-04-30T21:45:52.285Z,77.78
2018-04-30T21:48:19.530Z,74.40
2018-04-30T21:50:45.939Z,75.35
2018-04-30T21:53:12.472Z,76.18
2018-04-30T21:55:39.658Z,74.57
2018-04-30T21:58:06.130Z,76.17
2018-04-30T22:00:32.627Z,81.90
2018-04-30T22:02:59.074Z,90.23
2018-04-30T22:05:25.504Z,97.23
2018-04-30T22:07:51.910Z,103.45
2018-04-30T22:10:19.164Z,105.72
2018-04-30T22:12:45.618Z,104.20
2018-04-30T22:15:12.812Z,105.10
2018-04-30T22:17:39.244Z,107.63
2018-04-30T22:20:06.201Z,110.43
2018-04-30T22:22:32.676Z,115.68
2018-04-30T22:24:59.128Z,121.97
2018-04-30T22:27:25.549Z,124.22
2018-04-30T22:29:51.989Z,124.45
2018-04-30T22:32:18.409Z,129.38
2018-04-30T22:34:45.707Z,131.70
2018-04-30T22:37:13.391Z,131.15
2018-04-30T22:39:40.665Z,129.90
2018-04-30T22:42:07.824Z,129.20
2018-04-30T22:44:35.112Z,133.77
2018-04-30T22:47:02.320Z,134.30
2018-04-30T22:49:28.762Z,134.63
2018-04-30T22:51:55.161Z,136.75
2018-04-30T22:54:21.614Z,139.15
2018-04-30T22:56:49.519Z,137.23
2018-04-30T22:59:16.002Z,145.70
2018-04-30T23:01:43.157Z,150.80
2018-04-30T23:04:10.350Z,152.87
2018-04-30T23:06:36.899Z,153.75
2018-04-30T23:09:04.867Z,155.30
2018-04-30T23:11:31.331Z,170.52
2018-04-30T23:13:58.529Z,196.25
2018-04-30T23:16:24.987Z,186.07
2018-04-30T23:18:52.053Z,186.62
2018-04-30T23:21:18.497Z,183.00
2018-04-30T23:23:45.670Z,194.77
2018-04-30T23:26:12.101Z,176.48
2018-04-30T23:28:38.587Z,147.30
2018-04-30T23:31:05.069Z,145.00
2018-04-30T23:33:31.528Z,133.95
2018-04-30T23:35:57.952Z,126.47
2018-04-30T23:38:25.140Z,122.00
2018-04-30T23:40:51.546Z,122.47
2018-04-30T23:43:23.606Z,113.53
2018-04-30T23:45:50.054Z,97.15
2018-04-30T23:48:16.441Z,96.57
2018-04-30T23:50:42.854Z,93.85
2018-04-30T23:53:09.320Z,92.03
2018-04-30T23:55:35.820Z,86.40
2018-04-30T23:58:02.307Z,81.28
